createdAt,value
2023-03-30T00:01:35.364Z,8.31
2023-03-30T00:04:06.653Z,8.29
2023-03-30T00:06:39.328Z,8.29
2023-03-30T00:09:09.046Z,8.31
2023-03-30T00:11:39.681Z,8.32
2023-03-30T00:14:10.313Z,8.33
2023-03-30T00:16:41.463Z,8.34
2023-03-30T00:19:12.228Z,8.35
2023-03-30T00:21:42.975Z,8.36
2023-03-30T00:24:13.601Z,8.36
2023-03-30T00:26:44.167Z,8.37
2023-03-30T00:29:14.871Z,8.37
2023-03-30T00:31:46.428Z,8.36
2023-03-30T00:34:17.220Z,8.35
2023-03-30T00:36:49.169Z,8.34
2023-03-30T00:39:23.084Z,8.33
2023-03-30T00:41:53.687Z,8.34
2023-03-30T00:44:59.696Z,8.33
2023-03-30T00:47:31.575Z,8.34
2023-03-30T00:50:03.146Z,8.33
2023-03-30T00:52:37.316Z,8.33
2023-03-30T00:55:11.318Z,8.31
2023-03-30T00:57:45.299Z,8.32
2023-03-30T01:00:17.478Z,8.34
2023-03-30T01:02:51.650Z,8.37
2023-03-30T01:05:24.204Z,8.39
2023-03-30T01:07:58.108Z,8.40
2023-03-30T01:10:28.912Z,8.42
2023-03-30T01:13:00.038Z,8.44
2023-03-30T01:15:37.159Z,8.44
2023-03-30T01:18:26.328Z,8.45
2023-03-30T01:21:31.421Z,8.44
2023-03-30T01:24:42.953Z,8.44
2023-03-30T01:27:46.307Z,8.44
2023-03-30T01:30:38.774Z,8.43
2023-03-30T01:33:35.053Z,8.44
2023-03-30T01:36:54.162Z,8.43
2023-03-30T01:39:38.175Z,8.43
2023-03-30T01:42:20.212Z,8.43
2023-03-30T01:44:58.287Z,8.43
2023-03-30T01:47:36.908Z,8.44
2023-03-30T01:50:13.985Z,8.45
2023-03-30T01:52:53.804Z,8.46
2023-03-30T01:55:29.898Z,8.48
2023-03-30T01:58:06.929Z,8.49
2023-03-30T02:00:41.223Z,8.50
2023-03-30T02:03:15.324Z,8.51
2023-03-30T02:05:48.057Z,8.52
2023-03-30T02:08:23.081Z,8.54
2023-03-30T02:10:55.218Z,8.54
2023-03-30T02:13:27.804Z,8.54
2023-03-30T02:16:04.021Z,8.54
2023-03-30T02:18:34.826Z,8.54
2023-03-30T02:21:06.511Z,8.53
2023-03-30T02:23:39.516Z,8.52
2023-03-30T02:26:10.701Z,8.52
2023-03-30T02:28:42.435Z,8.51
2023-03-30T02:31:16.531Z,8.50
2023-03-30T02:34:04.579Z,8.51
2023-03-30T02:36:50.950Z,8.52
2023-03-30T02:39:31.103Z,8.51
2023-03-30T02:42:48.181Z,8.52
2023-03-30T02:45:28.974Z,8.53
2023-03-30T02:48:17.657Z,8.54
2023-03-30T02:50:56.677Z,8.54
2023-03-30T02:53:46.497Z,8.55
2023-03-30T02:56:30.124Z,8.55
2023-03-30T02:59:06.971Z,8.55
2023-03-30T03:01:42.881Z,8.55
2023-03-30T03:04:19.047Z,8.54
2023-03-30T03:07:03.964Z,8.54
2023-03-30T03:09:34.803Z,8.54
2023-03-30T03:12:07.070Z,8.54
2023-03-30T03:14:41.382Z,8.54
2023-03-30T03:17:13.689Z,8.53
2023-03-30T03:19:47.803Z,8.53
2023-03-30T03:22:18.763Z,8.52
2023-03-30T03:24:49.628Z,8.52
2023-03-30T03:27:39.694Z,8.52
2023-03-30T03:30:21.865Z,8.52
2023-03-30T03:33:02.012Z,8.53
2023-03-30T03:35:33.360Z,8.52
2023-03-30T03:38:06.793Z,8.55
2023-03-30T03:40:37.926Z,8.57
2023-03-30T03:43:10.590Z,8.58
2023-03-30T03:45:41.420Z,8.59
2023-03-30T03:48:12.161Z,8.60
2023-03-30T03:50:52.759Z,8.61
2023-03-30T03:53:24.980Z,8.62
2023-03-30T03:55:58.284Z,8.63
2023-03-30T03:58:29.257Z,8.63
2023-03-30T04:01:03.533Z,8.64
2023-03-30T04:03:35.639Z,8.64
2023-03-30T04:06:06.783Z,8.64
2023-03-30T04:08:37.742Z,8.63
2023-03-30T04:11:22.350Z,8.62
2023-03-30T04:14:10.085Z,8.62
2023-03-30T04:17:16.106Z,8.61
2023-03-30T04:20:11.562Z,8.60
2023-03-30T04:23:09.836Z,8.58
2023-03-30T04:26:13.673Z,8.56
2023-03-30T04:29:08.177Z,8.57
2023-03-30T04:32:02.751Z,8.56
2023-03-30T04:34:56.539Z,8.56
2023-03-30T04:37:33.532Z,8.57
2023-03-30T04:40:39.185Z,8.56
2023-03-30T04:43:23.589Z,8.55
2023-03-30T04:45:57.939Z,8.55
2023-03-30T04:48:37.427Z,8.54
2023-03-30T04:51:43.466Z,8.55
2023-03-30T04:54:33.368Z,8.56
2023-03-30T04:57:23.274Z,8.62
2023-03-30T05:00:18.202Z,9.01
2023-03-30T05:02:54.802Z,9.39
2023-03-30T05:05:36.682Z,9.75
2023-03-30T05:08:24.737Z,10.13
2023-03-30T05:11:18.540Z,10.41
2023-03-30T05:13:55.905Z,10.59
2023-03-30T05:16:45.167Z,10.79
2023-03-30T05:19:39.054Z,10.96
2023-03-30T05:22:28.182Z,11.07
2023-03-30T05:25:22.159Z,11.19
2023-03-30T05:28:03.492Z,11.16
2023-03-30T05:31:03.941Z,10.96
2023-03-30T05:33:55.032Z,10.69
2023-03-30T05:36:37.008Z,10.41
2023-03-30T05:39:46.482Z,10.24
2023-03-30T05:42:36.365Z,10.08
2023-03-30T05:45:25.885Z,9.95
2023-03-30T05:48:06.854Z,9.81
2023-03-30T05:51:08.263Z,9.68
2023-03-30T05:53:50.217Z,9.59
2023-03-30T05:56:47.071Z,9.56
2023-03-30T05:59:40.645Z,9.56
2023-03-30T06:02:32.141Z,9.55
2023-03-30T06:05:08.355Z,9.52
2023-03-30T06:07:39.564Z,9.58
2023-03-30T06:10:12.959Z,9.61
2023-03-30T06:12:43.811Z,9.63
2023-03-30T06:15:24.461Z,9.65
2023-03-30T06:18:00.480Z,9.66
2023-03-30T06:20:31.369Z,9.68
2023-03-30T06:23:02.265Z,9.71
2023-03-30T06:25:33.963Z,9.75
2023-03-30T06:28:05.065Z,9.81
2023-03-30T06:30:36.032Z,9.88
2023-03-30T06:33:08.157Z,10.00
2023-03-30T06:35:54.299Z,10.15
2023-03-30T06:38:26.425Z,10.24
2023-03-30T06:40:57.633Z,10.33
2023-03-30T06:43:29.579Z,10.35
2023-03-30T06:46:11.419Z,10.37
2023-03-30T06:48:43.581Z,10.38
2023-03-30T06:51:35.321Z,10.39
2023-03-30T06:54:07.131Z,10.41
2023-03-30T06:56:38.075Z,10.43
2023-03-30T06:59:12.597Z,10.44
2023-03-30T07:02:04.494Z,10.44
2023-03-30T07:05:06.352Z,10.43
2023-03-30T07:07:59.931Z,10.43
2023-03-30T07:10:30.658Z,10.44
2023-03-30T07:13:02.341Z,10.45
2023-03-30T07:15:33.118Z,10.45
2023-03-30T07:18:04.677Z,10.47
2023-03-30T07:20:36.371Z,10.50
2023-03-30T07:23:18.795Z,10.60
2023-03-30T07:25:49.553Z,10.73
2023-03-30T07:28:24.122Z,10.89
2023-03-30T07:30:55.223Z,11.18
2023-03-30T07:33:29.923Z,11.46
2023-03-30T07:36:01.788Z,11.93
2023-03-30T07:38:32.593Z,12.36
2023-03-30T07:41:07.280Z,12.73
2023-03-30T07:43:38.064Z,13.10
2023-03-30T07:46:09.851Z,13.44
2023-03-30T07:48:42.426Z,13.82
2023-03-30T07:51:14.808Z,14.19
2023-03-30T07:53:51.906Z,14.27
2023-03-30T07:56:27.829Z,14.18
2023-03-30T07:59:01.468Z,14.06
2023-03-30T08:01:35.139Z,13.95
2023-03-30T08:04:12.817Z,13.87
2023-03-30T08:06:44.523Z,13.79
2023-03-30T08:09:15.728Z,13.76
2023-03-30T08:11:47.052Z,13.70
2023-03-30T08:14:17.757Z,13.66
2023-03-30T08:16:48.345Z,13.64
2023-03-30T08:19:19.006Z,13.60
2023-03-30T08:21:49.827Z,13.64
2023-03-30T08:24:20.756Z,13.90
2023-03-30T08:26:51.533Z,14.12
2023-03-30T08:29:22.406Z,14.27
2023-03-30T08:31:53.970Z,14.30
2023-03-30T08:34:25.087Z,14.29
2023-03-30T08:36:55.932Z,14.27
2023-03-30T08:39:27.165Z,14.18
2023-03-30T08:42:07.650Z,14.09
2023-03-30T08:44:39.826Z,13.98
2023-03-30T08:47:15.443Z,13.90
2023-03-30T08:50:00.257Z,13.86
2023-03-30T08:52:32.755Z,13.79
2023-03-30T08:55:04.402Z,13.70
2023-03-30T08:57:44.982Z,13.60
2023-03-30T09:00:27.508Z,13.51
2023-03-30T09:03:08.303Z,13.41
2023-03-30T09:05:46.170Z,13.30
2023-03-30T09:08:22.814Z,13.21
2023-03-30T09:10:58.857Z,13.12
2023-03-30T09:13:34.269Z,13.04
2023-03-30T09:16:14.762Z,12.97
2023-03-30T09:18:48.728Z,12.87
2023-03-30T09:21:22.726Z,12.78
2023-03-30T09:23:54.846Z,12.70
2023-03-30T09:26:32.627Z,12.63
2023-03-30T09:29:08.584Z,12.55
2023-03-30T09:31:44.382Z,12.49
2023-03-30T09:34:27.206Z,12.43
2023-03-30T09:37:04.636Z,12.38
2023-03-30T09:39:37.640Z,12.32
2023-03-30T09:42:32.810Z,12.27
2023-03-30T09:45:09.712Z,12.20
2023-03-30T09:47:42.671Z,12.14
2023-03-30T09:50:19.780Z,12.07
2023-03-30T09:53:00.590Z,12.01
2023-03-30T09:55:34.873Z,11.97
2023-03-30T09:58:18.660Z,11.92
2023-03-30T10:01:02.009Z,11.88
2023-03-30T10:03:32.877Z,11.86
2023-03-30T10:06:10.209Z,11.85
2023-03-30T10:08:44.902Z,11.84
2023-03-30T10:11:20.390Z,11.82
2023-03-30T10:13:52.285Z,11.81
2023-03-30T10:16:28.863Z,11.79
2023-03-30T10:19:04.030Z,11.78
2023-03-30T10:21:41.129Z,11.76
2023-03-30T10:24:23.642Z,11.75
2023-03-30T10:26:57.716Z,11.75
2023-03-30T10:29:30.608Z,11.77
2023-03-30T10:32:04.575Z,11.79
2023-03-30T10:34:41.900Z,11.80
2023-03-30T10:37:17.368Z,11.81
2023-03-30T10:39:50.397Z,11.83
2023-03-30T10:42:26.293Z,11.91
2023-03-30T10:45:00.915Z,11.99
2023-03-30T10:47:42.974Z,12.04
2023-03-30T10:50:24.115Z,12.07
2023-03-30T10:53:07.829Z,12.10
2023-03-30T10:55:45.466Z,12.14
2023-03-30T10:58:28.341Z,12.18
2023-03-30T11:01:11.785Z,12.23
2023-03-30T11:03:48.491Z,12.26
2023-03-30T11:06:24.114Z,12.30
2023-03-30T11:08:57.760Z,12.35
2023-03-30T11:11:34.973Z,12.40
2023-03-30T11:14:12.592Z,12.46
2023-03-30T11:16:52.902Z,12.53
2023-03-30T11:19:27.164Z,12.57
2023-03-30T11:22:05.501Z,12.63
2023-03-30T11:24:37.144Z,12.65
2023-03-30T11:27:17.234Z,12.66
2023-03-30T11:29:53.861Z,12.66
2023-03-30T11:32:31.696Z,12.67
2023-03-30T11:35:12.989Z,12.68
2023-03-30T11:37:52.768Z,12.72
2023-03-30T11:40:27.926Z,12.75
2023-03-30T11:42:58.822Z,12.78
2023-03-30T11:45:48.671Z,12.83
2023-03-30T11:48:52.774Z,12.94
2023-03-30T11:51:46.414Z,13.09
2023-03-30T11:54:56.128Z,13.26
2023-03-30T11:57:38.398Z,13.48
2023-03-30T12:00:31.200Z,13.65
2023-03-30T12:03:14.609Z,13.84
2023-03-30T12:05:50.450Z,14.04
2023-03-30T12:08:40.120Z,14.18
2023-03-30T12:11:17.583Z,14.30
2023-03-30T12:13:51.574Z,14.41
2023-03-30T12:16:31.912Z,14.48
2023-03-30T12:19:12.929Z,14.50
2023-03-30T12:21:53.496Z,14.57
2023-03-30T12:24:30.486Z,14.60
2023-03-30T12:27:06.223Z,14.64
2023-03-30T12:32:29.467Z,14.78
2023-03-30T12:35:01.068Z,14.86
2023-03-30T12:37:36.027Z,14.94
2023-03-30T12:40:18.095Z,15.03
2023-03-30T12:42:54.461Z,15.16
2023-03-30T12:45:37.354Z,15.28
2023-03-30T12:48:30.522Z,15.44
2023-03-30T12:51:12.622Z,15.65
2023-03-30T12:54:04.017Z,15.82
2023-03-30T12:56:43.503Z,15.98
2023-03-30T12:59:45.874Z,16.14
2023-03-30T13:02:26.246Z,16.41
2023-03-30T13:04:58.175Z,16.60
2023-03-30T13:07:31.936Z,16.74
2023-03-30T13:10:06.529Z,16.83
2023-03-30T13:12:41.116Z,16.80
2023-03-30T13:15:43.004Z,16.80
2023-03-30T13:18:35.962Z,16.94
2023-03-30T13:21:25.546Z,17.06
2023-03-30T13:24:23.594Z,17.14
2023-03-30T13:26:54.382Z,17.18
2023-03-30T13:29:30.971Z,17.11
2023-03-30T13:32:20.122Z,16.99
2023-03-30T13:35:19.043Z,16.85
2023-03-30T13:38:04.326Z,16.73
2023-03-30T13:40:57.797Z,16.64
2023-03-30T13:43:56.203Z,16.55
2023-03-30T13:46:34.619Z,16.48
2023-03-30T13:49:23.371Z,16.45
2023-03-30T13:51:56.129Z,16.42
2023-03-30T13:54:30.690Z,16.43
2023-03-30T13:57:05.033Z,16.45
2023-03-30T13:59:38.073Z,16.46
2023-03-30T14:02:14.014Z,16.49
2023-03-30T14:04:45.684Z,16.55
2023-03-30T14:07:19.048Z,16.72
2023-03-30T14:10:08.521Z,16.83
2023-03-30T14:12:41.226Z,16.88
2023-03-30T14:15:23.027Z,16.96
2023-03-30T14:17:56.593Z,17.10
2023-03-30T14:20:44.027Z,17.20
2023-03-30T14:23:19.899Z,17.27
2023-03-30T14:25:54.379Z,17.21
2023-03-30T14:28:27.936Z,17.11
2023-03-30T14:31:03.167Z,17.01
2023-03-30T14:33:40.108Z,16.92
2023-03-30T14:36:13.866Z,16.87
2023-03-30T14:38:48.085Z,16.87
2023-03-30T14:41:22.801Z,16.93
2023-03-30T14:43:57.100Z,16.97
2023-03-30T14:46:33.408Z,16.94
2023-03-30T14:49:04.981Z,16.90
2023-03-30T14:51:42.118Z,16.90
2023-03-30T14:54:16.922Z,16.93
2023-03-30T14:56:52.654Z,16.95
2023-03-30T14:59:24.626Z,17.01
2023-03-30T15:01:56.346Z,17.06
2023-03-30T15:04:30.072Z,17.08
2023-03-30T15:07:01.764Z,17.14
2023-03-30T15:09:39.670Z,17.17
2023-03-30T15:12:19.556Z,17.18
2023-03-30T15:14:52.535Z,17.14
2023-03-30T15:17:26.564Z,17.03
2023-03-30T15:20:00.472Z,16.88
2023-03-30T15:22:34.905Z,16.70
2023-03-30T15:25:10.142Z,16.45
2023-03-30T15:27:43.797Z,16.20
2023-03-30T15:30:24.153Z,15.98
2023-03-30T15:32:57.545Z,15.79
2023-03-30T15:35:30.247Z,15.65
2023-03-30T15:38:03.182Z,15.57
2023-03-30T15:40:39.399Z,15.53
2023-03-30T15:43:21.816Z,15.48
2023-03-30T15:45:55.286Z,15.41
2023-03-30T15:48:29.930Z,15.34
2023-03-30T15:51:06.708Z,15.23
2023-03-30T15:53:43.195Z,15.02
2023-03-30T15:56:22.717Z,14.80
2023-03-30T15:58:54.260Z,14.51
2023-03-30T16:01:28.841Z,14.23
2023-03-30T16:04:02.954Z,14.00
2023-03-30T16:06:33.640Z,13.74
2023-03-30T16:09:04.361Z,13.55
2023-03-30T16:11:35.467Z,13.39
2023-03-30T16:14:08.349Z,13.27
2023-03-30T16:16:39.144Z,13.12
2023-03-30T16:19:14.537Z,12.99
2023-03-30T16:21:45.747Z,12.83
2023-03-30T16:24:16.728Z,12.71
2023-03-30T16:26:47.471Z,12.63
2023-03-30T16:29:22.489Z,12.62
2023-03-30T16:31:54.368Z,12.61
2023-03-30T16:34:25.376Z,12.60
2023-03-30T16:36:56.422Z,12.59
2023-03-30T16:39:29.021Z,12.59
2023-03-30T16:42:00.421Z,12.58
2023-03-30T16:44:31.487Z,12.53
2023-03-30T16:47:02.202Z,12.50
2023-03-30T16:49:33.025Z,12.48
2023-03-30T16:52:03.846Z,12.45
2023-03-30T16:54:34.694Z,12.44
2023-03-30T16:57:06.628Z,12.42
2023-03-30T16:59:38.496Z,12.37
2023-03-30T17:02:17.468Z,12.34
2023-03-30T17:04:49.989Z,12.30
2023-03-30T17:07:20.890Z,12.26
2023-03-30T17:09:51.536Z,12.26
2023-03-30T17:12:22.140Z,12.24
2023-03-30T17:14:52.876Z,12.20
2023-03-30T17:17:23.972Z,12.16
2023-03-30T17:19:55.128Z,12.13
2023-03-30T17:22:26.426Z,12.12
2023-03-30T17:24:57.333Z,12.09
2023-03-30T17:27:28.425Z,12.06
2023-03-30T17:29:59.433Z,12.04
2023-03-30T17:32:30.434Z,12.02
2023-03-30T17:35:01.205Z,12.00
2023-03-30T17:37:32.187Z,11.98
2023-03-30T17:40:03.051Z,11.96
2023-03-30T17:42:34.014Z,11.94
2023-03-30T17:45:05.368Z,11.93
2023-03-30T17:47:36.220Z,11.90
2023-03-30T17:50:19.041Z,11.88
2023-03-30T17:52:49.998Z,11.88
2023-03-30T17:55:23.903Z,11.87
2023-03-30T17:57:55.317Z,11.86
2023-03-30T18:00:29.027Z,11.84
2023-03-30T18:03:01.369Z,11.81
2023-03-30T18:05:34.655Z,11.77
2023-03-30T18:08:06.315Z,11.75
2023-03-30T18:10:38.864Z,11.74
2023-03-30T18:13:08.095Z,11.73
2023-03-30T18:15:39.104Z,11.71
2023-03-30T18:18:11.506Z,11.70
2023-03-30T18:20:43.822Z,11.68
2023-03-30T18:23:14.548Z,11.65
2023-03-30T18:25:45.868Z,11.61
2023-03-30T18:28:19.830Z,11.57
2023-03-30T18:30:51.048Z,11.56
2023-03-30T18:33:22.479Z,11.56
2023-03-30T18:35:54.600Z,11.57
2023-03-30T18:38:25.888Z,11.59
2023-03-30T18:40:58.151Z,11.58
2023-03-30T18:43:27.732Z,11.58
2023-03-30T18:46:02.001Z,11.57
2023-03-30T18:48:34.184Z,11.56
2023-03-30T18:51:04.978Z,11.53
2023-03-30T18:53:36.927Z,11.50
2023-03-30T18:56:10.424Z,11.48
2023-03-30T18:58:42.898Z,11.45
2023-03-30T19:01:15.967Z,11.41
2023-03-30T19:03:52.642Z,11.36
2023-03-30T19:06:24.246Z,11.32
2023-03-30T19:08:55.370Z,11.30
2023-03-30T19:11:28.283Z,11.28
2023-03-30T19:14:00.917Z,11.27
2023-03-30T19:16:30.341Z,11.28
2023-03-30T19:19:01.322Z,11.24
2023-03-30T19:21:32.212Z,11.26
2023-03-30T19:24:03.225Z,11.29
2023-03-30T19:26:35.288Z,11.32
2023-03-30T19:29:06.175Z,11.32
2023-03-30T19:31:37.553Z,11.31
2023-03-30T19:34:08.955Z,11.30
2023-03-30T19:36:39.867Z,11.32
2023-03-30T19:39:10.608Z,11.33
2023-03-30T19:41:42.087Z,11.34
2023-03-30T19:44:13.778Z,11.35
2023-03-30T19:46:44.853Z,11.36
2023-03-30T19:49:15.925Z,11.37
2023-03-30T19:51:47.986Z,11.39
2023-03-30T19:54:20.824Z,11.38
2023-03-30T19:56:52.256Z,11.39
2023-03-30T19:59:23.044Z,11.41
2023-03-30T20:01:57.238Z,11.41
2023-03-30T20:04:28.534Z,11.38
2023-03-30T20:07:00.899Z,11.35
2023-03-30T20:09:30.202Z,11.31
2023-03-30T20:12:04.488Z,11.28
2023-03-30T20:14:36.641Z,11.26
2023-03-30T20:17:10.350Z,11.22
2023-03-30T20:19:42.995Z,11.19
2023-03-30T20:22:13.913Z,11.13
2023-03-30T20:24:45.260Z,11.07
2023-03-30T20:27:17.188Z,11.04
2023-03-30T20:29:48.056Z,11.00
2023-03-30T20:32:18.946Z,10.97
2023-03-30T20:34:50.996Z,10.95
2023-03-30T20:37:22.155Z,10.92
2023-03-30T20:39:53.146Z,10.93
2023-03-30T20:42:26.530Z,10.94
2023-03-30T20:44:57.821Z,10.94
2023-03-30T20:47:30.981Z,10.93
2023-03-30T20:50:02.220Z,10.91
2023-03-30T20:52:33.208Z,10.90
2023-03-30T20:55:04.072Z,10.90
2023-03-30T20:57:34.822Z,10.92
2023-03-30T21:00:07.258Z,10.94
2023-03-30T21:02:38.109Z,10.96
2023-03-30T21:05:09.523Z,10.93
2023-03-30T21:07:42.294Z,10.97
2023-03-30T21:10:15.908Z,10.98
2023-03-30T21:12:46.677Z,10.98
2023-03-30T21:15:18.076Z,10.98
2023-03-30T21:17:48.852Z,10.98
2023-03-30T21:20:20.003Z,10.96
2023-03-30T21:22:50.736Z,10.94
2023-03-30T21:25:21.582Z,10.91
2023-03-30T21:27:52.311Z,10.89
2023-03-30T21:30:23.324Z,10.86
2023-03-30T21:32:54.058Z,10.82
2023-03-30T21:35:25.022Z,10.79
2023-03-30T21:37:55.967Z,10.79
2023-03-30T21:40:26.834Z,10.77
2023-03-30T21:42:57.642Z,10.73
2023-03-30T21:45:28.425Z,10.70
2023-03-30T21:47:59.407Z,10.68
2023-03-30T21:50:30.429Z,10.67
2023-03-30T21:53:01.457Z,10.65
2023-03-30T21:55:32.234Z,10.62
2023-03-30T21:58:03.006Z,10.59
2023-03-30T22:00:33.665Z,10.56
2023-03-30T22:03:04.831Z,10.54
2023-03-30T22:05:37.964Z,10.53
2023-03-30T22:08:09.068Z,10.54
2023-03-30T22:10:40.580Z,10.52
2023-03-30T22:13:12.004Z,10.51
2023-03-30T22:15:42.701Z,10.48
2023-03-30T22:18:13.362Z,10.46
2023-03-30T22:20:46.021Z,10.46
2023-03-30T22:23:16.729Z,10.47
2023-03-30T22:25:47.902Z,10.50
2023-03-30T22:28:18.897Z,10.52
2023-03-30T22:30:50.083Z,10.54
2023-03-30T22:33:21.565Z,10.58
2023-03-30T22:35:52.463Z,10.62
2023-03-30T22:38:23.241Z,10.66
2023-03-30T22:41:03.645Z,10.70
2023-03-30T22:43:36.772Z,10.72
2023-03-30T22:46:08.184Z,10.73
2023-03-30T22:48:41.402Z,10.74
2023-03-30T22:51:14.544Z,10.74
2023-03-30T22:53:45.226Z,10.73
2023-03-30T22:56:15.794Z,10.75
2023-03-30T22:58:47.704Z,10.76
2023-03-30T23:01:19.625Z,10.74
2023-03-30T23:03:50.515Z,10.83
2023-03-30T23:06:21.904Z,10.93
2023-03-30T23:08:54.101Z,11.02
2023-03-30T23:11:26.463Z,11.10
2023-03-30T23:13:57.514Z,11.17
2023-03-30T23:16:28.892Z,11.23
2023-03-30T23:18:59.850Z,11.28
2023-03-30T23:21:34.237Z,11.31
2023-03-30T23:24:07.109Z,11.34
2023-03-30T23:26:38.157Z,11.39
2023-03-30T23:29:08.913Z,11.43
2023-03-30T23:31:39.710Z,11.47
2023-03-30T23:34:14.504Z,11.55
2023-03-30T23:36:45.256Z,11.62
2023-03-30T23:39:16.402Z,11.63
2023-03-30T23:41:47.366Z,11.59
2023-03-30T23:44:18.336Z,11.55
2023-03-30T23:46:49.284Z,11.54
2023-03-30T23:49:20.101Z,11.58
2023-03-30T23:51:51.785Z,11.58
2023-03-30T23:54:23.312Z,11.60
2023-03-30T23:56:57.966Z,11.62
2023-03-30T23:59:28.836Z,11.61
